createdAt,value
2019-02-07T00:01:02.644Z,30.50
2019-02-07T00:03:30.853Z,26.07
2019-02-07T00:05:58.825Z,28.20
2019-02-07T00:08:26.886Z,29.60
2019-02-07T00:10:54.904Z,29.43
2019-02-07T00:13:23.047Z,29.63
2019-02-07T00:15:51.266Z,30.87
2019-02-07T00:18:19.369Z,30.37
2019-02-07T00:20:47.457Z,30.43
2019-02-07T00:23:15.779Z,31.03
2019-02-07T00:25:44.062Z,27.77
2019-02-07T00:28:12.433Z,27.70
2019-02-07T00:30:40.497Z,32.03
2019-02-07T00:33:08.239Z,30.33
2019-02-07T00:35:36.220Z,28.60
2019-02-07T00:38:04.359Z,27.57
2019-02-07T00:40:32.074Z,31.10
2019-02-07T00:43:00.070Z,28.90
2019-02-07T00:45:28.311Z,30.20
2019-02-07T00:47:56.214Z,26.97
2019-02-07T00:50:24.345Z,33.03
2019-02-07T00:52:52.101Z,29.87
2019-02-07T00:55:20.473Z,30.50
2019-02-07T00:57:48.425Z,32.30
2019-02-07T01:00:19.313Z,28.17
2019-02-07T01:02:47.260Z,27.50
2019-02-07T01:05:15.944Z,27.87
2019-02-07T01:07:44.058Z,27.20
2019-02-07T01:10:13.059Z,30.13
2019-02-07T01:12:41.282Z,29.20
2019-02-07T01:15:09.871Z,28.93
2019-02-07T01:17:37.734Z,29.83
2019-02-07T01:20:06.737Z,27.57
2019-02-07T01:22:34.716Z,32.87
2019-02-07T01:25:03.030Z,29.97
2019-02-07T01:27:31.333Z,31.27
2019-02-07T01:29:59.228Z,29.40
2019-02-07T01:32:27.209Z,30.30
2019-02-07T01:34:55.236Z,27.23
2019-02-07T01:37:23.211Z,28.93
2019-02-07T01:39:51.148Z,29.57
2019-02-07T01:42:19.028Z,31.80
2019-02-07T01:44:47.357Z,31.00
2019-02-07T01:47:15.398Z,29.40
2019-02-07T01:49:43.213Z,29.23
2019-02-07T01:52:11.302Z,28.77
2019-02-07T01:54:39.366Z,29.33
2019-02-07T01:57:07.483Z,31.97
2019-02-07T01:59:35.388Z,29.87
2019-02-07T02:02:03.714Z,29.63
2019-02-07T02:04:31.783Z,30.87
2019-02-07T02:06:59.725Z,33.10
2019-02-07T02:09:27.779Z,29.63
2019-02-07T02:11:55.644Z,32.83
2019-02-07T02:14:23.507Z,30.17
2019-02-07T02:16:51.395Z,30.97
2019-02-07T02:19:20.354Z,32.17
2019-02-07T02:21:48.571Z,27.37
2019-02-07T02:24:16.686Z,29.80
2019-02-07T02:26:44.709Z,31.53
2019-02-07T02:29:12.869Z,29.10
2019-02-07T02:31:40.906Z,35.10
2019-02-07T02:34:09.186Z,29.23
2019-02-07T02:36:37.146Z,29.27
2019-02-07T02:39:07.593Z,36.93
2019-02-07T02:41:35.583Z,30.27
2019-02-07T02:44:03.651Z,31.53
2019-02-07T02:46:31.720Z,31.83
2019-02-07T02:48:59.623Z,31.20
2019-02-07T02:51:27.903Z,29.10
2019-02-07T02:53:58.200Z,34.73
2019-02-07T02:56:26.068Z,30.13
2019-02-07T02:58:56.795Z,33.13
2019-02-07T03:01:44.082Z,32.20
2019-02-07T03:04:23.843Z,30.57
2019-02-07T03:07:09.650Z,29.23
2019-02-07T03:09:55.515Z,28.47
2019-02-07T03:12:54.845Z,31.67
2019-02-07T03:15:49.272Z,31.37
2019-02-07T03:18:29.259Z,31.47
2019-02-07T03:21:11.802Z,34.37
2019-02-07T03:24:02.139Z,29.83
2019-02-07T03:26:48.440Z,30.77
2019-02-07T03:29:38.995Z,33.53
2019-02-07T03:32:29.946Z,31.50
2019-02-07T03:35:15.859Z,31.60
2019-02-07T03:38:15.548Z,29.57
2019-02-07T03:40:52.036Z,32.37
2019-02-07T03:43:38.211Z,28.90
2019-02-07T03:46:28.574Z,32.43
2019-02-07T03:49:23.071Z,32.50
2019-02-07T03:52:08.883Z,33.73
2019-02-07T03:54:54.918Z,36.67
2019-02-07T03:57:42.360Z,33.73
2019-02-07T04:00:30.077Z,31.93
2019-02-07T04:03:16.357Z,33.87
2019-02-07T04:06:06.815Z,32.90
2019-02-07T04:08:52.893Z,33.43
2019-02-07T04:11:39.066Z,37.50
2019-02-07T04:14:32.471Z,31.80
2019-02-07T04:17:14.140Z,32.27
2019-02-07T04:20:00.366Z,29.37
2019-02-07T04:22:36.906Z,31.43
2019-02-07T04:25:22.769Z,32.10
2019-02-07T04:28:13.565Z,34.33
2019-02-07T04:30:59.871Z,32.63
2019-02-07T04:33:46.126Z,31.80
2019-02-07T04:36:35.376Z,33.90
2019-02-07T04:39:44.645Z,33.17
2019-02-07T04:42:35.010Z,32.60
2019-02-07T04:45:26.640Z,32.60
2019-02-07T04:48:12.445Z,31.20
2019-02-07T04:51:18.444Z,31.13
2019-02-07T04:54:12.856Z,40.63
2019-02-07T04:56:52.001Z,33.13
2019-02-07T04:59:45.363Z,34.97
2019-02-07T05:02:51.297Z,32.53
2019-02-07T05:05:53.668Z,35.50
2019-02-07T05:08:56.343Z,32.03
2019-02-07T05:11:43.179Z,34.17
2019-02-07T05:14:26.938Z,34.50
2019-02-07T05:17:29.347Z,38.33
2019-02-07T05:20:15.583Z,34.87
2019-02-07T05:23:01.900Z,36.10
2019-02-07T05:25:49.710Z,34.67
2019-02-07T05:28:49.049Z,41.00
2019-02-07T05:31:35.238Z,34.40
2019-02-07T05:34:28.339Z,32.53
2019-02-07T05:37:06.931Z,34.53
2019-02-07T05:39:54.019Z,32.17
2019-02-07T05:42:39.926Z,32.97
2019-02-07T05:45:43.654Z,33.80
2019-02-07T05:48:37.395Z,33.07
2019-02-07T05:51:27.773Z,33.93
2019-02-07T05:54:18.484Z,36.27
2019-02-07T05:57:08.972Z,31.57
2019-02-07T06:00:02.190Z,30.90
2019-02-07T06:02:36.444Z,29.67
2019-02-07T06:05:23.156Z,32.37
2019-02-07T06:08:13.364Z,34.60
2019-02-07T06:10:59.304Z,35.20
2019-02-07T06:14:02.053Z,32.37
2019-02-07T06:16:48.056Z,36.70
2019-02-07T06:19:45.148Z,34.93
2019-02-07T06:22:32.540Z,35.70
2019-02-07T06:25:29.205Z,32.77
2019-02-07T06:28:14.377Z,33.37
2019-02-07T06:31:17.062Z,32.97
2019-02-07T06:34:09.739Z,35.50
2019-02-07T06:37:04.272Z,28.37
2019-02-07T06:39:45.935Z,36.67
2019-02-07T06:42:32.710Z,37.10
2019-02-07T06:45:09.835Z,32.67
2019-02-07T06:47:56.115Z,34.77
2019-02-07T06:50:49.367Z,33.30
2019-02-07T06:53:39.719Z,37.43
2019-02-07T06:56:26.073Z,46.63
2019-02-07T06:59:19.644Z,58.37
2019-02-07T07:02:05.357Z,52.10
2019-02-07T07:04:52.761Z,50.80
2019-02-07T07:07:55.052Z,50.50
2019-02-07T07:10:51.190Z,51.53
2019-02-07T07:13:25.513Z,45.70
2019-02-07T07:16:08.336Z,52.37
2019-02-07T07:18:58.583Z,55.00
2019-02-07T07:21:52.780Z,39.43
2019-02-07T07:24:35.833Z,35.97
2019-02-07T07:27:18.746Z,39.20
2019-02-07T07:30:04.449Z,37.20
2019-02-07T07:33:00.461Z,38.83
2019-02-07T07:35:53.734Z,39.87
2019-02-07T07:38:40.170Z,40.47
2019-02-07T07:41:30.155Z,39.70
2019-02-07T07:44:17.516Z,41.17
2019-02-07T07:47:03.420Z,37.30
2019-02-07T07:49:59.774Z,42.70
2019-02-07T07:52:52.110Z,34.17
2019-02-07T07:55:32.132Z,42.07
2019-02-07T07:58:18.649Z,45.03
2019-02-07T08:01:21.007Z,40.83
2019-02-07T08:04:08.554Z,40.77
2019-02-07T08:06:51.980Z,40.27
2019-02-07T08:09:40.063Z,38.30
2019-02-07T08:12:27.096Z,43.70
2019-02-07T08:15:13.129Z,41.97
2019-02-07T08:17:58.780Z,40.47
2019-02-07T08:20:46.352Z,39.80
2019-02-07T08:23:22.241Z,41.50
2019-02-07T08:26:03.592Z,40.63
2019-02-07T08:28:51.733Z,49.60
2019-02-07T08:31:48.005Z,40.17
2019-02-07T08:34:38.473Z,39.40
2019-02-07T08:37:43.950Z,36.40
2019-02-07T08:40:42.041Z,40.13
2019-02-07T08:43:44.597Z,40.70
2019-02-07T08:46:31.307Z,37.63
2019-02-07T08:49:24.347Z,37.43
2019-02-07T08:52:10.602Z,41.80
2019-02-07T08:54:49.171Z,36.70
2019-02-07T08:57:35.132Z,35.13
2019-02-07T09:00:37.975Z,33.87
2019-02-07T09:03:40.721Z,37.97
2019-02-07T09:06:22.829Z,31.83
2019-02-07T09:09:19.496Z,39.53
2019-02-07T09:12:12.795Z,32.53
2019-02-07T09:14:59.450Z,40.43
2019-02-07T09:17:52.808Z,38.90
2019-02-07T09:20:27.825Z,38.33
2019-02-07T09:23:03.552Z,39.00
2019-02-07T09:26:05.943Z,40.83
2019-02-07T09:29:11.485Z,36.23
2019-02-07T09:31:58.924Z,42.27
2019-02-07T09:34:46.398Z,37.90
2019-02-07T09:37:45.742Z,47.87
2019-02-07T09:40:32.904Z,40.77
2019-02-07T09:43:18.802Z,40.57
2019-02-07T09:46:05.913Z,39.13
2019-02-07T09:49:01.791Z,28.80
2019-02-07T09:51:43.528Z,33.20
2019-02-07T09:54:45.883Z,31.40
2019-02-07T09:57:42.185Z,33.37
2019-02-07T10:00:34.092Z,33.87
2019-02-07T10:03:24.677Z,32.27
2019-02-07T10:06:07.334Z,38.33
2019-02-07T10:08:48.746Z,31.93
2019-02-07T10:11:28.826Z,29.43
2019-02-07T10:14:22.655Z,29.70
2019-02-07T10:17:27.845Z,26.10
2019-02-07T10:20:27.099Z,34.30
2019-02-07T10:23:26.371Z,27.17
2019-02-07T10:26:22.951Z,25.67
2019-02-07T10:29:15.720Z,28.40
2019-02-07T10:32:11.645Z,24.97
2019-02-07T10:34:50.793Z,36.60
2019-02-07T10:37:37.882Z,30.67
2019-02-07T10:40:30.654Z,29.13
2019-02-07T10:43:17.820Z,30.33
2019-02-07T10:46:21.530Z,30.70
2019-02-07T10:49:09.604Z,34.30
2019-02-07T10:52:02.892Z,29.50
2019-02-07T10:54:49.382Z,24.70
2019-02-07T10:57:34.846Z,25.13
2019-02-07T11:00:24.235Z,25.43
2019-02-07T11:03:14.990Z,23.37
2019-02-07T11:06:01.800Z,30.83
2019-02-07T11:08:47.592Z,24.70
2019-02-07T11:11:37.369Z,17.60
2019-02-07T11:14:23.718Z,24.20
2019-02-07T11:17:00.689Z,25.10
2019-02-07T11:19:57.050Z,24.60
2019-02-07T11:22:33.744Z,29.63
2019-02-07T11:25:28.440Z,29.90
2019-02-07T11:28:27.377Z,25.10
2019-02-07T11:31:16.610Z,25.70
2019-02-07T11:34:03.798Z,23.70
2019-02-07T11:36:58.193Z,19.53
2019-02-07T11:39:47.951Z,20.27
2019-02-07T11:42:32.278Z,18.33
2019-02-07T11:45:30.746Z,20.67
2019-02-07T11:48:21.904Z,21.87
2019-02-07T11:51:22.150Z,21.03
2019-02-07T11:54:09.314Z,20.13
2019-02-07T11:57:11.555Z,17.03
2019-02-07T11:59:58.628Z,21.77
2019-02-07T12:02:57.618Z,23.17
2019-02-07T12:05:46.785Z,19.27
2019-02-07T12:08:36.855Z,27.03
2019-02-07T12:11:23.256Z,18.43
2019-02-07T12:13:59.893Z,17.97
2019-02-07T12:16:51.740Z,20.77
2019-02-07T12:19:44.779Z,22.77
2019-02-07T12:22:28.818Z,21.60
2019-02-07T12:25:19.162Z,24.50
2019-02-07T12:28:06.024Z,20.00
2019-02-07T12:31:11.308Z,20.90
2019-02-07T12:33:51.385Z,25.47
2019-02-07T12:36:41.375Z,20.37
2019-02-07T12:39:26.063Z,22.13
2019-02-07T12:42:27.875Z,19.80
2019-02-07T12:45:09.468Z,19.43
2019-02-07T12:47:47.918Z,20.20
2019-02-07T12:50:37.902Z,24.80
2019-02-07T12:53:19.450Z,19.70
2019-02-07T12:56:22.537Z,17.90
2019-02-07T12:59:09.608Z,18.27
2019-02-07T13:01:45.100Z,19.63
2019-02-07T13:04:31.883Z,20.83
2019-02-07T13:07:19.061Z,22.30
2019-02-07T13:10:07.225Z,21.37
2019-02-07T13:12:51.627Z,24.50
2019-02-07T13:15:38.830Z,22.20
2019-02-07T13:18:18.062Z,20.70
2019-02-07T13:21:05.300Z,22.73
2019-02-07T13:23:59.432Z,23.90
2019-02-07T13:26:49.683Z,29.27
2019-02-07T13:29:43.530Z,25.87
2019-02-07T13:32:46.042Z,25.67
2019-02-07T13:35:39.560Z,22.30
2019-02-07T13:38:25.472Z,21.90
2019-02-07T13:41:12.664Z,22.00
2019-02-07T13:44:02.590Z,20.37
2019-02-07T13:46:55.783Z,23.07
2019-02-07T13:49:52.094Z,22.17
2019-02-07T13:52:43.737Z,24.07
2019-02-07T13:55:39.862Z,23.47
2019-02-07T13:58:43.609Z,26.23
2019-02-07T14:01:29.413Z,24.10
2019-02-07T14:04:09.787Z,22.50
2019-02-07T14:06:55.625Z,21.80
2019-02-07T14:09:41.419Z,21.30
2019-02-07T14:12:19.777Z,23.67
2019-02-07T14:15:04.060Z,22.10
2019-02-07T14:17:50.307Z,22.80
2019-02-07T14:20:35.904Z,22.30
2019-02-07T14:23:23.111Z,26.97
2019-02-07T14:26:08.994Z,23.40
2019-02-07T14:29:11.286Z,26.03
2019-02-07T14:32:07.564Z,23.13
2019-02-07T14:34:54.478Z,20.30
2019-02-07T14:37:41.548Z,18.63
2019-02-07T14:40:31.838Z,19.40
2019-02-07T14:43:17.206Z,18.57
2019-02-07T14:46:10.045Z,21.00
2019-02-07T14:48:37.666Z,19.10
2019-02-07T14:51:05.266Z,16.80
2019-02-07T14:53:32.825Z,16.60
2019-02-07T14:56:00.455Z,20.23
2019-02-07T14:58:28.034Z,24.27
2019-02-07T15:00:55.688Z,22.27
2019-02-07T15:03:23.869Z,18.33
2019-02-07T15:05:51.458Z,19.17
2019-02-07T15:08:19.048Z,21.77
2019-02-07T15:10:46.640Z,24.60
2019-02-07T15:13:14.298Z,25.80
2019-02-07T15:15:41.884Z,21.57
2019-02-07T15:18:09.529Z,27.67
2019-02-07T15:20:37.398Z,23.73
2019-02-07T15:23:05.099Z,25.87
2019-02-07T15:25:32.711Z,29.03
2019-02-07T15:28:00.368Z,31.67
2019-02-07T15:30:27.914Z,40.67
2019-02-07T15:32:55.547Z,41.47
2019-02-07T15:35:29.557Z,42.10
2019-02-07T15:37:57.701Z,40.80
2019-02-07T15:40:25.755Z,42.50
2019-02-07T15:42:53.961Z,42.77
2019-02-07T15:45:21.951Z,41.13
2019-02-07T15:47:49.603Z,40.80
2019-02-07T15:50:20.313Z,37.10
2019-02-07T15:52:48.631Z,41.30
2019-02-07T15:55:16.334Z,36.43
2019-02-07T15:57:43.994Z,35.07
2019-02-07T16:00:33.268Z,53.00
2019-02-07T16:03:04.572Z,50.90
2019-02-07T16:05:32.653Z,45.07
2019-02-07T16:08:00.378Z,36.53
2019-02-07T16:10:28.046Z,36.60
2019-02-07T16:12:55.673Z,37.00
2019-02-07T16:15:23.261Z,39.90
2019-02-07T16:17:50.910Z,34.53
2019-02-07T16:20:18.695Z,34.17
2019-02-07T16:22:46.635Z,34.37
2019-02-07T16:25:14.617Z,29.10
2019-02-07T16:27:42.404Z,37.43
2019-02-07T16:30:12.389Z,30.70
2019-02-07T16:32:40.131Z,28.77
2019-02-07T16:35:09.098Z,28.10
2019-02-07T16:37:36.978Z,31.33
2019-02-07T16:40:05.791Z,28.10
2019-02-07T16:42:33.397Z,31.07
2019-02-07T16:45:00.967Z,29.37
2019-02-07T16:47:29.682Z,34.70
2019-02-07T16:49:57.442Z,30.77
2019-02-07T16:52:25.051Z,31.53
2019-02-07T16:54:54.898Z,31.77
2019-02-07T16:57:22.650Z,32.50
2019-02-07T16:59:50.282Z,34.93
2019-02-07T17:02:18.026Z,33.83
2019-02-07T17:04:45.641Z,39.80
2019-02-07T17:07:13.408Z,39.43
2019-02-07T17:09:43.235Z,43.10
2019-02-07T17:12:11.487Z,38.30
2019-02-07T17:14:39.146Z,34.17
2019-02-07T17:17:06.732Z,36.47
2019-02-07T17:19:34.398Z,38.93
2019-02-07T17:22:02.000Z,35.10
2019-02-07T17:24:29.656Z,33.27
2019-02-07T17:26:57.239Z,29.80
2019-02-07T17:29:25.187Z,36.43
2019-02-07T17:31:53.143Z,33.33
2019-02-07T17:34:22.168Z,33.77
2019-02-07T17:36:50.739Z,36.53
2019-02-07T17:39:18.884Z,41.07
2019-02-07T17:41:49.503Z,40.80
2019-02-07T17:44:17.535Z,50.43
2019-02-07T17:46:45.155Z,49.77
2019-02-07T17:49:14.826Z,45.20
2019-02-07T17:51:42.346Z,45.77
2019-02-07T17:54:18.648Z,48.97
2019-02-07T17:56:39.503Z,46.30
2019-02-07T17:59:07.437Z,41.70
2019-02-07T18:01:35.484Z,38.27
2019-02-07T18:04:03.454Z,41.47
2019-02-07T18:06:31.324Z,41.67
2019-02-07T18:08:59.421Z,41.63
2019-02-07T18:11:26.996Z,51.20
2019-02-07T18:13:54.531Z,48.97
2019-02-07T18:16:22.116Z,57.70
2019-02-07T18:18:49.987Z,55.17
2019-02-07T18:21:17.528Z,52.03
2019-02-07T18:23:45.083Z,51.80
2019-02-07T18:26:12.750Z,51.00
2019-02-07T18:28:40.331Z,46.00
2019-02-07T18:31:07.953Z,45.20
2019-02-07T18:33:35.608Z,45.00
2019-02-07T18:36:03.298Z,40.93
2019-02-07T18:38:30.846Z,43.83
2019-02-07T18:40:58.511Z,41.00
2019-02-07T18:43:26.013Z,38.80
2019-02-07T18:45:53.652Z,41.37
2019-02-07T18:48:21.209Z,44.57
2019-02-07T18:50:50.569Z,43.20
2019-02-07T18:53:18.278Z,39.73
2019-02-07T18:55:45.994Z,42.03
2019-02-07T18:58:13.611Z,39.30
2019-02-07T19:00:41.319Z,37.00
2019-02-07T19:03:08.954Z,35.23
2019-02-07T19:05:36.661Z,36.63
2019-02-07T19:08:04.444Z,40.77
2019-02-07T19:10:32.081Z,38.67
2019-02-07T19:13:00.213Z,38.10
2019-02-07T19:15:34.968Z,39.07
2019-02-07T19:18:02.762Z,38.17
2019-02-07T19:20:30.339Z,37.53
2019-02-07T19:22:59.601Z,35.60
2019-02-07T19:25:27.170Z,33.33
2019-02-07T19:27:55.471Z,35.77
2019-02-07T19:30:25.832Z,39.93
2019-02-07T19:32:53.597Z,35.10
2019-02-07T19:35:21.177Z,35.63
2019-02-07T19:37:48.869Z,32.00
2019-02-07T19:40:16.511Z,32.27
2019-02-07T19:42:45.341Z,37.57
2019-02-07T19:45:13.785Z,33.70
2019-02-07T19:47:41.545Z,33.87
2019-02-07T19:50:12.092Z,31.33
2019-02-07T19:52:39.825Z,31.30
2019-02-07T19:55:10.475Z,30.80
2019-02-07T19:57:38.112Z,30.50
2019-02-07T20:00:08.845Z,30.67
2019-02-07T20:02:39.425Z,35.40
2019-02-07T20:05:07.899Z,34.70
2019-02-07T20:07:35.510Z,35.07
2019-02-07T20:10:05.125Z,35.00
2019-02-07T20:12:32.779Z,32.60
2019-02-07T20:15:00.375Z,31.63
2019-02-07T20:17:28.388Z,34.37
2019-02-07T20:19:55.964Z,31.67
2019-02-07T20:22:23.710Z,32.13
2019-02-07T20:24:51.305Z,36.23
2019-02-07T20:27:18.893Z,33.17
2019-02-07T20:29:46.826Z,35.07
2019-02-07T20:32:14.997Z,33.80
2019-02-07T20:34:42.970Z,32.93
2019-02-07T20:37:11.138Z,31.57
2019-02-07T20:39:39.931Z,33.73
2019-02-07T20:42:07.986Z,35.27
2019-02-07T20:44:35.901Z,35.83
2019-02-07T20:47:03.954Z,35.47
2019-02-07T20:49:32.017Z,38.50
2019-02-07T20:52:00.074Z,40.80
2019-02-07T20:54:28.191Z,33.53
2019-02-07T20:56:56.612Z,34.97
2019-02-07T20:59:24.583Z,34.20
2019-02-07T21:01:52.455Z,35.03
2019-02-07T21:04:20.447Z,32.37
2019-02-07T21:06:48.495Z,34.00
2019-02-07T21:09:16.421Z,34.97
2019-02-07T21:11:44.384Z,35.73
2019-02-07T21:14:12.579Z,34.80
2019-02-07T21:16:40.759Z,36.33
2019-02-07T21:19:08.762Z,33.30
2019-02-07T21:21:36.654Z,32.80
2019-02-07T21:24:04.862Z,33.90
2019-02-07T21:26:32.868Z,33.13
2019-02-07T21:29:00.791Z,33.93
2019-02-07T21:31:29.138Z,37.40
2019-02-07T21:33:58.271Z,37.67
2019-02-07T21:36:26.314Z,37.80
2019-02-07T21:38:54.294Z,35.90
2019-02-07T21:41:22.396Z,33.87
2019-02-07T21:43:50.236Z,38.60
2019-02-07T21:46:18.233Z,36.90
2019-02-07T21:48:46.502Z,36.77
2019-02-07T21:51:14.550Z,38.33
2019-02-07T21:53:42.566Z,36.70
2019-02-07T21:56:10.607Z,37.67
2019-02-07T21:58:38.593Z,35.30
2019-02-07T22:01:06.638Z,35.97
2019-02-07T22:03:34.722Z,36.97
2019-02-07T22:06:02.840Z,36.17
2019-02-07T22:08:30.840Z,37.00
2019-02-07T22:10:58.831Z,36.80
2019-02-07T22:13:26.924Z,34.27
2019-02-07T22:15:54.974Z,37.03
2019-02-07T22:18:23.007Z,39.10
2019-02-07T22:20:51.044Z,37.30
2019-02-07T22:23:19.229Z,34.73
2019-02-07T22:25:47.857Z,37.37
2019-02-07T22:28:15.908Z,37.83
2019-02-07T22:30:43.856Z,38.97
2019-02-07T22:33:11.749Z,40.50
2019-02-07T22:35:39.735Z,39.10
2019-02-07T22:38:08.083Z,40.27
2019-02-07T22:40:36.568Z,41.67
2019-02-07T22:43:04.910Z,42.33
2019-02-07T22:45:33.033Z,41.73
2019-02-07T22:48:01.093Z,43.97
2019-02-07T22:50:29.237Z,40.67
2019-02-07T22:52:57.480Z,39.60
2019-02-07T22:55:25.350Z,39.33
2019-02-07T22:57:53.519Z,41.77
2019-02-07T23:01:11.988Z,39.47
2019-02-07T23:03:49.420Z,38.50
2019-02-07T23:06:18.489Z,38.20
2019-02-07T23:08:46.376Z,41.73
2019-02-07T23:11:14.266Z,42.70
2019-02-07T23:13:42.018Z,45.13
2019-02-07T23:16:10.117Z,40.20
2019-02-07T23:18:38.347Z,39.80
2019-02-07T23:21:06.951Z,40.77
2019-02-07T23:23:35.928Z,38.57
2019-02-07T23:26:05.754Z,42.03
2019-02-07T23:28:33.908Z,39.10
2019-02-07T23:31:02.025Z,38.53
2019-02-07T23:33:29.966Z,39.97
2019-02-07T23:35:58.339Z,40.60
2019-02-07T23:38:26.338Z,41.23
2019-02-07T23:40:54.278Z,38.97
2019-02-07T23:43:22.166Z,38.40
2019-02-07T23:45:50.275Z,42.43
2019-02-07T23:48:18.297Z,40.23
2019-02-07T23:50:46.215Z,36.33
2019-02-07T23:53:15.317Z,37.40
2019-02-07T23:55:43.413Z,39.73
2019-02-07T23:58:11.515Z,38.73
